sensor_id;sensor_type;location;lat;lon;timestamp;P1;durP1;ratioP1;P2;durP2;ratioP2
47289;SDS011;33197;52.524;13.444;2022-08-18T00:01:21;10.10;;;7.93;;
47289;SDS011;33197;52.524;13.444;2022-08-18T00:03:49;9.80;;;7.28;;
47289;SDS011;33197;52.524;13.444;2022-08-18T00:06:27;13.30;;;7.60;;
47289;SDS011;33197;52.524;13.444;2022-08-18T00:08:56;11.40;;;7.40;;
47289;SDS011;33197;52.524;13.444;2022-08-18T00:11:25;11.77;;;7.97;;
47289;SDS011;33197;52.524;13.444;2022-08-18T00:13:53;9.93;;;7.35;;
47289;SDS011;33197;52.524;13.444;2022-08-18T00:16:20;7.60;;;6.85;;
47289;SDS011;33197;52.524;13.444;2022-08-18T00:18:48;11.45;;;7.43;;
47289;SDS011;33197;52.524;13.444;2022-08-18T00:21:15;10.18;;;7.70;;
47289;SDS011;33197;52.524;13.444;2022-08-18T00:23:44;11.70;;;7.65;;
47289;SDS011;33197;52.524;13.444;2022-08-18T00:26:11;11.13;;;7.63;;
47289;SDS011;33197;52.524;13.444;2022-08-18T00:28:38;8.90;;;7.72;;
47289;SDS011;33197;52.524;13.444;2022-08-18T00:31:05;8.30;;;6.90;;
47289;SDS011;33197;52.524;13.444;2022-08-18T00:33:32;9.63;;;7.90;;
47289;SDS011;33197;52.524;13.444;2022-08-18T00:35:59;8.18;;;7.13;;
47289;SDS011;33197;52.524;13.444;2022-08-18T00:38:27;8.43;;;7.50;;
47289;SDS011;33197;52.524;13.444;2022-08-18T00:40:54;9.40;;;7.38;;
47289;SDS011;33197;52.524;13.444;2022-08-18T00:43:28;12.48;;;7.22;;
47289;SDS011;33197;52.524;13.444;2022-08-18T00:46:06;9.70;;;7.97;;
47289;SDS011;33197;52.524;13.444;2022-08-18T00:48:34;10.30;;;7.28;;
47289;SDS011;33197;52.524;13.444;2022-08-18T00:51:03;8.52;;;7.72;;
47289;SDS011;33197;52.524;13.444;2022-08-18T00:53:35;9.07;;;7.47;;
47289;SDS011;33197;52.524;13.444;2022-08-18T00:56:09;7.93;;;7.13;;
47289;SDS011;33197;52.524;13.444;2022-08-18T00:58:40;13.25;;;7.95;;
47289;SDS011;33197;52.524;13.444;2022-08-18T01:01:11;10.90;;;7.75;;
47289;SDS011;33197;52.524;13.444;2022-08-18T01:03:41;10.52;;;7.05;;
47289;SDS011;33197;52.524;13.444;2022-08-18T01:08:58;13.13;;;8.25;;
47289;SDS011;33197;52.524;13.444;2022-08-18T01:11:25;8.68;;;7.63;;
47289;SDS011;33197;52.524;13.444;2022-08-18T01:13:52;8.63;;;7.70;;
47289;SDS011;33197;52.524;13.444;2022-08-18T01:16:22;10.05;;;7.00;;
47289;SDS011;33197;52.524;13.444;2022-08-18T01:19:23;8.65;;;7.75;;
47289;SDS011;33197;52.524;13.444;2022-08-18T01:22:16;9.27;;;8.00;;
47289;SDS011;33197;52.524;13.444;2022-08-18T01:24:57;9.52;;;7.97;;
47289;SDS011;33197;52.524;13.444;2022-08-18T01:27:44;8.80;;;7.90;;
47289;SDS011;33197;52.524;13.444;2022-08-18T01:30:13;8.52;;;7.72;;
47289;SDS011;33197;52.524;13.444;2022-08-18T01:32:42;8.73;;;7.57;;
47289;SDS011;33197;52.524;13.444;2022-08-18T01:35:12;13.70;;;8.68;;
47289;SDS011;33197;52.524;13.444;2022-08-18T01:37:41;10.60;;;8.38;;
47289;SDS011;33197;52.524;13.444;2022-08-18T01:40:09;10.02;;;7.72;;
47289;SDS011;33197;52.524;13.444;2022-08-18T01:42:58;10.75;;;8.48;;
47289;SDS011;33197;52.524;13.444;2022-08-18T01:45:29;11.65;;;7.50;;
47289;SDS011;33197;52.524;13.444;2022-08-18T01:47:59;13.35;;;8.45;;
47289;SDS011;33197;52.524;13.444;2022-08-18T01:50:27;8.57;;;7.78;;
47289;SDS011;33197;52.524;13.444;2022-08-18T01:52:55;12.10;;;8.70;;
47289;SDS011;33197;52.524;13.444;2022-08-18T01:55:22;10.07;;;7.57;;
47289;SDS011;33197;52.524;13.444;2022-08-18T01:57:52;10.35;;;7.70;;
47289;SDS011;33197;52.524;13.444;2022-08-18T02:00:20;9.82;;;8.05;;
47289;SDS011;33197;52.524;13.444;2022-08-18T02:02:48;11.05;;;7.45;;
47289;SDS011;33197;52.524;13.444;2022-08-18T02:05:30;10.27;;;7.50;;
47289;SDS011;33197;52.524;13.444;2022-08-18T02:07:59;10.63;;;7.82;;
47289;SDS011;33197;52.524;13.444;2022-08-18T02:10:27;9.63;;;8.10;;
47289;SDS011;33197;52.524;13.444;2022-08-18T02:12:54;9.25;;;7.85;;
47289;SDS011;33197;52.524;13.444;2022-08-18T02:15:21;12.02;;;7.90;;
47289;SDS011;33197;52.524;13.444;2022-08-18T02:17:48;8.80;;;7.88;;
47289;SDS011;33197;52.524;13.444;2022-08-18T02:20:17;9.65;;;7.72;;
47289;SDS011;33197;52.524;13.444;2022-08-18T02:22:45;15.25;;;8.52;;
47289;SDS011;33197;52.524;13.444;2022-08-18T02:25:13;11.32;;;9.05;;
47289;SDS011;33197;52.524;13.444;2022-08-18T02:27:41;9.93;;;8.55;;
47289;SDS011;33197;52.524;13.444;2022-08-18T02:30:09;9.63;;;8.00;;
47289;SDS011;33197;52.524;13.444;2022-08-18T02:32:39;11.52;;;8.65;;
47289;SDS011;33197;52.524;13.444;2022-08-18T02:35:08;9.35;;;8.25;;
47289;SDS011;33197;52.524;13.444;2022-08-18T02:37:38;14.30;;;8.38;;
47289;SDS011;33197;52.524;13.444;2022-08-18T02:40:08;11.20;;;8.57;;
47289;SDS011;33197;52.524;13.444;2022-08-18T02:42:41;12.40;;;7.50;;
47289;SDS011;33197;52.524;13.444;2022-08-18T02:45:09;10.15;;;7.95;;
47289;SDS011;33197;52.524;13.444;2022-08-18T02:47:38;10.65;;;8.13;;
47289;SDS011;33197;52.524;13.444;2022-08-18T02:50:08;9.90;;;8.43;;
47289;SDS011;33197;52.524;13.444;2022-08-18T02:52:36;9.57;;;8.00;;
47289;SDS011;33197;52.524;13.444;2022-08-18T02:55:06;10.38;;;8.60;;
47289;SDS011;33197;52.524;13.444;2022-08-18T02:57:34;9.77;;;8.63;;
47289;SDS011;33197;52.524;13.444;2022-08-18T03:00:02;13.23;;;8.52;;
47289;SDS011;33197;52.524;13.444;2022-08-18T03:02:30;9.48;;;8.57;;
47289;SDS011;33197;52.524;13.444;2022-08-18T03:04:57;10.25;;;8.75;;
47289;SDS011;33197;52.524;13.444;2022-08-18T03:07:25;11.65;;;8.50;;
47289;SDS011;33197;52.524;13.444;2022-08-18T03:09:52;10.45;;;8.55;;
47289;SDS011;33197;52.524;13.444;2022-08-18T03:12:19;9.27;;;8.30;;
47289;SDS011;33197;52.524;13.444;2022-08-18T03:14:47;9.27;;;8.00;;
47289;SDS011;33197;52.524;13.444;2022-08-18T03:17:14;15.70;;;8.68;;
47289;SDS011;33197;52.524;13.444;2022-08-18T03:19:41;11.63;;;8.57;;
47289;SDS011;33197;52.524;13.444;2022-08-18T03:22:13;11.85;;;8.25;;
47289;SDS011;33197;52.524;13.444;2022-08-18T03:24:55;13.25;;;8.38;;
47289;SDS011;33197;52.524;13.444;2022-08-18T03:27:23;14.57;;;8.75;;
47289;SDS011;33197;52.524;13.444;2022-08-18T03:29:51;9.80;;;8.75;;
47289;SDS011;33197;52.524;13.444;2022-08-18T03:32:18;9.18;;;8.18;;
47289;SDS011;33197;52.524;13.444;2022-08-18T03:34:45;9.57;;;8.57;;
47289;SDS011;33197;52.524;13.444;2022-08-18T03:37:12;10.05;;;8.55;;
47289;SDS011;33197;52.524;13.444;2022-08-18T03:39:41;10.35;;;9.07;;
47289;SDS011;33197;52.524;13.444;2022-08-18T03:42:09;9.70;;;8.57;;
47289;SDS011;33197;52.524;13.444;2022-08-18T03:44:36;10.52;;;8.02;;
47289;SDS011;33197;52.524;13.444;2022-08-18T03:47:07;14.82;;;9.27;;
47289;SDS011;33197;52.524;13.444;2022-08-18T03:49:35;9.20;;;8.02;;
47289;SDS011;33197;52.524;13.444;2022-08-18T03:52:05;10.18;;;8.10;;
47289;SDS011;33197;52.524;13.444;2022-08-18T03:54:34;11.23;;;8.77;;
47289;SDS011;33197;52.524;13.444;2022-08-18T03:57:02;11.98;;;9.30;;
47289;SDS011;33197;52.524;13.444;2022-08-18T03:59:29;10.52;;;8.85;;
47289;SDS011;33197;52.524;13.444;2022-08-18T04:01:57;12.60;;;8.45;;
47289;SDS011;33197;52.524;13.444;2022-08-18T04:04:26;10.15;;;8.75;;
47289;SDS011;33197;52.524;13.444;2022-08-18T04:06:56;15.20;;;9.02;;
47289;SDS011;33197;52.524;13.444;2022-08-18T04:09:26;11.43;;;8.85;;
47289;SDS011;33197;52.524;13.444;2022-08-18T04:11:55;11.45;;;9.13;;
47289;SDS011;33197;52.524;13.444;2022-08-18T04:14:25;12.40;;;9.15;;
47289;SDS011;33197;52.524;13.444;2022-08-18T04:17:01;10.80;;;9.00;;
47289;SDS011;33197;52.524;13.444;2022-08-18T04:19:28;11.98;;;8.65;;
47289;SDS011;33197;52.524;13.444;2022-08-18T04:21:56;13.05;;;9.07;;
47289;SDS011;33197;52.524;13.444;2022-08-18T04:24:25;11.35;;;9.02;;
47289;SDS011;33197;52.524;13.444;2022-08-18T04:26:57;16.70;;;9.43;;
47289;SDS011;33197;52.524;13.444;2022-08-18T04:29:25;10.77;;;9.30;;
47289;SDS011;33197;52.524;13.444;2022-08-18T04:31:52;11.10;;;9.23;;
47289;SDS011;33197;52.524;13.444;2022-08-18T04:34:20;13.63;;;9.40;;
47289;SDS011;33197;52.524;13.444;2022-08-18T04:36:49;13.50;;;10.38;;
47289;SDS011;33197;52.524;13.444;2022-08-18T04:39:20;11.77;;;9.40;;
47289;SDS011;33197;52.524;13.444;2022-08-18T04:41:48;11.00;;;8.73;;
47289;SDS011;33197;52.524;13.444;2022-08-18T04:44:15;11.35;;;8.63;;
47289;SDS011;33197;52.524;13.444;2022-08-18T04:46:44;11.30;;;9.05;;
47289;SDS011;33197;52.524;13.444;2022-08-18T04:49:14;11.25;;;8.70;;
47289;SDS011;33197;52.524;13.444;2022-08-18T04:51:43;13.70;;;10.00;;
47289;SDS011;33197;52.524;13.444;2022-08-18T04:54:50;10.50;;;9.48;;
47289;SDS011;33197;52.524;13.444;2022-08-18T04:57:19;12.00;;;8.55;;
47289;SDS011;33197;52.524;13.444;2022-08-18T04:59:48;11.48;;;9.10;;
47289;SDS011;33197;52.524;13.444;2022-08-18T05:02:16;11.15;;;9.45;;
47289;SDS011;33197;52.524;13.444;2022-08-18T05:04:44;13.38;;;9.23;;
47289;SDS011;33197;52.524;13.444;2022-08-18T05:07:19;11.02;;;9.23;;
47289;SDS011;33197;52.524;13.444;2022-08-18T05:09:48;11.45;;;9.63;;
47289;SDS011;33197;52.524;13.444;2022-08-18T05:12:15;10.05;;;8.38;;
47289;SDS011;33197;52.524;13.444;2022-08-18T05:14:44;13.63;;;9.23;;
47289;SDS011;33197;52.524;13.444;2022-08-18T05:17:12;16.45;;;10.40;;
47289;SDS011;33197;52.524;13.444;2022-08-18T05:19:41;11.93;;;9.00;;
47289;SDS011;33197;52.524;13.444;2022-08-18T05:22:10;13.32;;;9.18;;
47289;SDS011;33197;52.524;13.444;2022-08-18T05:24:44;13.60;;;9.57;;
47289;SDS011;33197;52.524;13.444;2022-08-18T05:27:12;11.07;;;9.02;;
47289;SDS011;33197;52.524;13.444;2022-08-18T05:29:39;11.75;;;9.75;;
47289;SDS011;33197;52.524;13.444;2022-08-18T05:32:12;10.40;;;8.70;;
47289;SDS011;33197;52.524;13.444;2022-08-18T05:35:03;12.82;;;10.07;;
47289;SDS011;33197;52.524;13.444;2022-08-18T05:37:55;12.80;;;9.10;;
47289;SDS011;33197;52.524;13.444;2022-08-18T05:40:30;12.27;;;9.63;;
47289;SDS011;33197;52.524;13.444;2022-08-18T05:42:57;11.30;;;9.30;;
47289;SDS011;33197;52.524;13.444;2022-08-18T05:45:25;15.43;;;10.30;;
47289;SDS011;33197;52.524;13.444;2022-08-18T05:47:57;11.85;;;9.45;;
47289;SDS011;33197;52.524;13.444;2022-08-18T05:50:26;10.75;;;9.27;;
47289;SDS011;33197;52.524;13.444;2022-08-18T05:53:00;14.38;;;8.80;;
47289;SDS011;33197;52.524;13.444;2022-08-18T05:55:45;13.32;;;9.05;;
47289;SDS011;33197;52.524;13.444;2022-08-18T05:58:43;9.70;;;8.63;;
47289;SDS011;33197;52.524;13.444;2022-08-18T06:01:17;9.88;;;8.35;;
47289;SDS011;33197;52.524;13.444;2022-08-18T06:04:00;10.25;;;9.27;;
47289;SDS011;33197;52.524;13.444;2022-08-18T06:06:31;12.10;;;8.63;;
47289;SDS011;33197;52.524;13.444;2022-08-18T06:09:12;13.15;;;9.77;;
47289;SDS011;33197;52.524;13.444;2022-08-18T06:11:55;12.10;;;9.45;;
47289;SDS011;33197;52.524;13.444;2022-08-18T06:14:30;14.43;;;12.82;;
47289;SDS011;33197;52.524;13.444;2022-08-18T06:17:01;18.27;;;14.68;;
47289;SDS011;33197;52.524;13.444;2022-08-18T06:19:36;16.23;;;13.98;;
47289;SDS011;33197;52.524;13.444;2022-08-18T06:22:16;22.70;;;12.02;;
47289;SDS011;33197;52.524;13.444;2022-08-18T06:28:21;14.20;;;10.30;;
47289;SDS011;33197;52.524;13.444;2022-08-18T06:30:56;18.02;;;10.43;;
47289;SDS011;33197;52.524;13.444;2022-08-18T06:33:34;15.52;;;10.40;;
47289;SDS011;33197;52.524;13.444;2022-08-18T06:36:15;16.95;;;9.77;;
47289;SDS011;33197;52.524;13.444;2022-08-18T06:41:44;18.60;;;11.05;;
47289;SDS011;33197;52.524;13.444;2022-08-18T06:52:58;21.52;;;10.07;;
47289;SDS011;33197;52.524;13.444;2022-08-18T06:55:52;13.68;;;9.55;;
47289;SDS011;33197;52.524;13.444;2022-08-18T06:58:20;12.68;;;9.45;;
47289;SDS011;33197;52.524;13.444;2022-08-18T07:06:22;13.00;;;9.85;;
47289;SDS011;33197;52.524;13.444;2022-08-18T07:08:51;15.88;;;11.20;;
47289;SDS011;33197;52.524;13.444;2022-08-18T07:13:49;10.38;;;9.35;;
47289;SDS011;33197;52.524;13.444;2022-08-18T07:16:38;13.07;;;9.40;;
47289;SDS011;33197;52.524;13.444;2022-08-18T07:19:27;11.98;;;9.70;;
47289;SDS011;33197;52.524;13.444;2022-08-18T07:22:13;12.52;;;9.35;;
47289;SDS011;33197;52.524;13.444;2022-08-18T07:24:45;13.00;;;10.00;;
47289;SDS011;33197;52.524;13.444;2022-08-18T07:27:20;16.67;;;8.95;;
47289;SDS011;33197;52.524;13.444;2022-08-18T07:30:00;13.80;;;9.65;;
47289;SDS011;33197;52.524;13.444;2022-08-18T07:32:34;11.23;;;8.85;;
47289;SDS011;33197;52.524;13.444;2022-08-18T07:35:05;17.83;;;9.95;;
47289;SDS011;33197;52.524;13.444;2022-08-18T07:37:38;16.23;;;9.32;;
47289;SDS011;33197;52.524;13.444;2022-08-18T07:45:55;14.98;;;9.82;;
47289;SDS011;33197;52.524;13.444;2022-08-18T07:48:34;15.30;;;9.68;;
47289;SDS011;33197;52.524;13.444;2022-08-18T07:51:28;11.02;;;9.85;;
47289;SDS011;33197;52.524;13.444;2022-08-18T07:54:20;14.27;;;9.67;;
47289;SDS011;33197;52.524;13.444;2022-08-18T07:57:12;18.30;;;9.98;;
47289;SDS011;33197;52.524;13.444;2022-08-18T08:02:30;15.25;;;9.43;;
47289;SDS011;33197;52.524;13.444;2022-08-18T08:05:34;20.73;;;10.65;;
47289;SDS011;33197;52.524;13.444;2022-08-18T08:17:04;12.95;;;10.10;;
47289;SDS011;33197;52.524;13.444;2022-08-18T08:22:35;14.93;;;10.40;;
47289;SDS011;33197;52.524;13.444;2022-08-18T08:34:01;12.25;;;9.93;;
47289;SDS011;33197;52.524;13.444;2022-08-18T08:36:35;16.02;;;10.88;;
47289;SDS011;33197;52.524;13.444;2022-08-18T08:39:17;10.57;;;9.15;;
47289;SDS011;33197;52.524;13.444;2022-08-18T08:41:52;12.55;;;9.90;;
47289;SDS011;33197;52.524;13.444;2022-08-18T08:44:56;15.02;;;9.25;;
47289;SDS011;33197;52.524;13.444;2022-08-18T08:47:31;16.77;;;10.15;;
47289;SDS011;33197;52.524;13.444;2022-08-18T08:50:11;18.77;;;10.95;;
47289;SDS011;33197;52.524;13.444;2022-08-18T08:55:33;15.02;;;9.45;;
47289;SDS011;33197;52.524;13.444;2022-08-18T08:58:09;15.45;;;10.55;;
47289;SDS011;33197;52.524;13.444;2022-08-18T09:00:54;19.48;;;10.50;;
47289;SDS011;33197;52.524;13.444;2022-08-18T09:03:30;18.70;;;9.95;;
47289;SDS011;33197;52.524;13.444;2022-08-18T09:06:09;16.77;;;9.45;;
47289;SDS011;33197;52.524;13.444;2022-08-18T09:22:50;14.40;;;9.48;;
47289;SDS011;33197;52.524;13.444;2022-08-18T09:25:55;13.88;;;8.77;;
47289;SDS011;33197;52.524;13.444;2022-08-18T09:28:22;13.15;;;8.48;;
47289;SDS011;33197;52.524;13.444;2022-08-18T09:38:56;12.10;;;8.63;;
47289;SDS011;33197;52.524;13.444;2022-08-18T09:41:55;12.52;;;9.85;;
47289;SDS011;33197;52.524;13.444;2022-08-18T09:49:54;14.50;;;9.30;;
47289;SDS011;33197;52.524;13.444;2022-08-18T09:57:27;15.98;;;9.63;;
47289;SDS011;33197;52.524;13.444;2022-08-18T10:07:48;15.38;;;9.73;;
47289;SDS011;33197;52.524;13.444;2022-08-18T10:13:48;14.10;;;8.63;;
47289;SDS011;33197;52.524;13.444;2022-08-18T10:16:26;10.98;;;8.00;;
47289;SDS011;33197;52.524;13.444;2022-08-18T10:19:56;11.73;;;7.97;;
47289;SDS011;33197;52.524;13.444;2022-08-18T10:22:39;14.18;;;8.18;;
47289;SDS011;33197;52.524;13.444;2022-08-18T10:25:09;22.27;;;10.05;;
47289;SDS011;33197;52.524;13.444;2022-08-18T10:27:51;15.98;;;8.35;;
47289;SDS011;33197;52.524;13.444;2022-08-18T10:36:38;22.13;;;10.30;;
47289;SDS011;33197;52.524;13.444;2022-08-18T10:39:21;9.18;;;8.23;;
47289;SDS011;33197;52.524;13.444;2022-08-18T10:41:51;24.98;;;9.75;;
47289;SDS011;33197;52.524;13.444;2022-08-18T10:44:26;19.67;;;8.88;;
47289;SDS011;33197;52.524;13.444;2022-08-18T10:46:57;20.33;;;10.40;;
47289;SDS011;33197;52.524;13.444;2022-08-18T10:49:25;13.55;;;9.32;;
47289;SDS011;33197;52.524;13.444;2022-08-18T10:57:45;19.70;;;8.95;;
47289;SDS011;33197;52.524;13.444;2022-08-18T11:00:20;13.25;;;8.48;;
47289;SDS011;33197;52.524;13.444;2022-08-18T11:06:03;15.93;;;8.52;;
47289;SDS011;33197;52.524;13.444;2022-08-18T11:08:41;12.05;;;8.60;;
47289;SDS011;33197;52.524;13.444;2022-08-18T11:11:11;14.40;;;8.23;;
47289;SDS011;33197;52.524;13.444;2022-08-18T11:14:03;13.65;;;8.65;;
47289;SDS011;33197;52.524;13.444;2022-08-18T11:19:14;14.15;;;9.35;;
47289;SDS011;33197;52.524;13.444;2022-08-18T11:21:43;17.60;;;8.45;;
47289;SDS011;33197;52.524;13.444;2022-08-18T11:24:32;14.55;;;8.43;;
47289;SDS011;33197;52.524;13.444;2022-08-18T11:27:04;15.93;;;8.88;;
47289;SDS011;33197;52.524;13.444;2022-08-18T11:29:52;15.50;;;8.10;;
47289;SDS011;33197;52.524;13.444;2022-08-18T11:32:23;16.25;;;8.20;;
47289;SDS011;33197;52.524;13.444;2022-08-18T11:43:24;16.98;;;8.60;;
47289;SDS011;33197;52.524;13.444;2022-08-18T11:46:12;10.77;;;6.85;;
47289;SDS011;33197;52.524;13.444;2022-08-18T11:48:57;12.80;;;8.00;;
47289;SDS011;33197;52.524;13.444;2022-08-18T11:51:30;8.60;;;5.90;;
47289;SDS011;33197;52.524;13.444;2022-08-18T11:54:00;13.90;;;6.63;;
47289;SDS011;33197;52.524;13.444;2022-08-18T11:56:30;8.05;;;6.43;;
47289;SDS011;33197;52.524;13.444;2022-08-18T11:59:46;8.68;;;6.38;;
47289;SDS011;33197;52.524;13.444;2022-08-18T12:02:15;8.23;;;6.28;;
47289;SDS011;33197;52.524;13.444;2022-08-18T12:04:43;11.45;;;6.50;;
47289;SDS011;33197;52.524;13.444;2022-08-18T12:07:16;12.55;;;6.40;;
47289;SDS011;33197;52.524;13.444;2022-08-18T12:12:48;11.57;;;5.45;;
47289;SDS011;33197;52.524;13.444;2022-08-18T12:17:50;6.05;;;4.68;;
47289;SDS011;33197;52.524;13.444;2022-08-18T12:20:20;7.47;;;5.90;;
47289;SDS011;33197;52.524;13.444;2022-08-18T12:22:48;12.30;;;5.95;;
47289;SDS011;33197;52.524;13.444;2022-08-18T12:25:16;9.93;;;5.70;;
47289;SDS011;33197;52.524;13.444;2022-08-18T12:27:52;15.25;;;6.30;;
47289;SDS011;33197;52.524;13.444;2022-08-18T12:30:19;12.15;;;5.60;;
47289;SDS011;33197;52.524;13.444;2022-08-18T12:32:46;9.20;;;6.40;;
47289;SDS011;33197;52.524;13.444;2022-08-18T12:35:16;10.27;;;5.93;;
47289;SDS011;33197;52.524;13.444;2022-08-18T12:37:48;8.73;;;5.75;;
47289;SDS011;33197;52.524;13.444;2022-08-18T12:40:35;7.57;;;6.05;;
47289;SDS011;33197;52.524;13.444;2022-08-18T12:43:02;8.20;;;5.97;;
47289;SDS011;33197;52.524;13.444;2022-08-18T12:45:31;11.68;;;6.50;;
47289;SDS011;33197;52.524;13.444;2022-08-18T12:47:59;9.32;;;6.43;;
47289;SDS011;33197;52.524;13.444;2022-08-18T12:50:30;6.90;;;6.20;;
47289;SDS011;33197;52.524;13.444;2022-08-18T12:53:17;8.52;;;6.50;;
47289;SDS011;33197;52.524;13.444;2022-08-18T12:55:56;6.93;;;5.32;;
47289;SDS011;33197;52.524;13.444;2022-08-18T12:58:23;8.98;;;6.03;;
47289;SDS011;33197;52.524;13.444;2022-08-18T13:00:50;6.30;;;5.20;;
47289;SDS011;33197;52.524;13.444;2022-08-18T13:03:18;8.57;;;5.68;;
47289;SDS011;33197;52.524;13.444;2022-08-18T13:05:45;9.95;;;5.75;;
47289;SDS011;33197;52.524;13.444;2022-08-18T13:08:15;9.38;;;6.32;;
47289;SDS011;33197;52.524;13.444;2022-08-18T13:10:59;15.73;;;7.30;;
47289;SDS011;33197;52.524;13.444;2022-08-18T13:21:16;13.85;;;7.55;;
47289;SDS011;33197;52.524;13.444;2022-08-18T13:23:44;12.38;;;7.78;;
47289;SDS011;33197;52.524;13.444;2022-08-18T13:26:20;11.77;;;7.78;;
47289;SDS011;33197;52.524;13.444;2022-08-18T13:28:53;12.82;;;7.57;;
47289;SDS011;33197;52.524;13.444;2022-08-18T13:31:24;10.77;;;7.97;;
47289;SDS011;33197;52.524;13.444;2022-08-18T13:33:52;9.10;;;7.07;;
47289;SDS011;33197;52.524;13.444;2022-08-18T13:36:26;11.17;;;7.27;;
47289;SDS011;33197;52.524;13.444;2022-08-18T13:39:16;11.55;;;8.05;;
47289;SDS011;33197;52.524;13.444;2022-08-18T13:41:45;11.57;;;7.47;;
47289;SDS011;33197;52.524;13.444;2022-08-18T13:44:15;15.55;;;8.35;;
47289;SDS011;33197;52.524;13.444;2022-08-18T13:46:46;11.07;;;6.97;;
47289;SDS011;33197;52.524;13.444;2022-08-18T13:49:14;11.90;;;7.65;;
47289;SDS011;33197;52.524;13.444;2022-08-18T13:51:50;10.00;;;7.97;;
47289;SDS011;33197;52.524;13.444;2022-08-18T13:54:21;8.52;;;7.63;;
47289;SDS011;33197;52.524;13.444;2022-08-18T13:56:59;9.85;;;7.47;;
47289;SDS011;33197;52.524;13.444;2022-08-18T13:59:27;10.73;;;7.78;;
47289;SDS011;33197;52.524;13.444;2022-08-18T14:01:59;12.85;;;7.03;;
47289;SDS011;33197;52.524;13.444;2022-08-18T14:04:34;9.77;;;7.10;;
47289;SDS011;33197;52.524;13.444;2022-08-18T14:07:02;12.13;;;7.20;;
47289;SDS011;33197;52.524;13.444;2022-08-18T14:09:36;11.15;;;7.60;;
47289;SDS011;33197;52.524;13.444;2022-08-18T14:12:18;11.80;;;7.35;;
47289;SDS011;33197;52.524;13.444;2022-08-18T14:14:51;8.45;;;6.82;;
47289;SDS011;33197;52.524;13.444;2022-08-18T14:17:19;14.85;;;8.25;;
47289;SDS011;33197;52.524;13.444;2022-08-18T14:19:49;8.77;;;7.55;;
47289;SDS011;33197;52.524;13.444;2022-08-18T14:22:50;10.25;;;6.82;;
47289;SDS011;33197;52.524;13.444;2022-08-18T14:25:37;8.88;;;7.35;;
47289;SDS011;33197;52.524;13.444;2022-08-18T14:28:26;10.98;;;7.45;;
47289;SDS011;33197;52.524;13.444;2022-08-18T14:30:54;16.35;;;7.78;;
47289;SDS011;33197;52.524;13.444;2022-08-18T14:33:23;16.40;;;7.32;;
47289;SDS011;33197;52.524;13.444;2022-08-18T14:36:12;11.90;;;8.38;;
47289;SDS011;33197;52.524;13.444;2022-08-18T14:38:40;8.77;;;7.88;;
47289;SDS011;33197;52.524;13.444;2022-08-18T14:41:09;12.85;;;7.15;;
47289;SDS011;33197;52.524;13.444;2022-08-18T14:43:39;11.02;;;6.90;;
47289;SDS011;33197;52.524;13.444;2022-08-18T14:46:26;10.45;;;6.95;;
47289;SDS011;33197;52.524;13.444;2022-08-18T14:48:58;12.57;;;8.38;;
47289;SDS011;33197;52.524;13.444;2022-08-18T14:51:30;9.73;;;7.28;;
47289;SDS011;33197;52.524;13.444;2022-08-18T14:53:59;8.40;;;6.85;;
47289;SDS011;33197;52.524;13.444;2022-08-18T14:56:27;13.13;;;6.95;;
47289;SDS011;33197;52.524;13.444;2022-08-18T14:58:55;13.63;;;6.10;;
47289;SDS011;33197;52.524;13.444;2022-08-18T15:01:22;7.50;;;6.18;;
47289;SDS011;33197;52.524;13.444;2022-08-18T15:03:52;11.40;;;6.15;;
47289;SDS011;33197;52.524;13.444;2022-08-18T15:06:20;13.88;;;7.40;;
47289;SDS011;33197;52.524;13.444;2022-08-18T15:08:53;8.30;;;5.80;;
47289;SDS011;33197;52.524;13.444;2022-08-18T15:11:23;14.23;;;5.95;;
47289;SDS011;33197;52.524;13.444;2022-08-18T15:13:50;10.02;;;6.43;;
47289;SDS011;33197;52.524;13.444;2022-08-18T15:16:21;12.68;;;6.68;;
47289;SDS011;33197;52.524;13.444;2022-08-18T15:18:58;10.40;;;5.85;;
47289;SDS011;33197;52.524;13.444;2022-08-18T15:21:26;9.55;;;6.22;;
47289;SDS011;33197;52.524;13.444;2022-08-18T15:24:13;13.77;;;6.57;;
47289;SDS011;33197;52.524;13.444;2022-08-18T15:27:05;13.23;;;6.22;;
47289;SDS011;33197;52.524;13.444;2022-08-18T15:29:45;11.18;;;6.28;;
47289;SDS011;33197;52.524;13.444;2022-08-18T15:32:12;8.77;;;6.10;;
47289;SDS011;33197;52.524;13.444;2022-08-18T15:34:43;6.32;;;5.70;;
47289;SDS011;33197;52.524;13.444;2022-08-18T15:37:17;9.48;;;6.50;;
47289;SDS011;33197;52.524;13.444;2022-08-18T15:39:56;13.25;;;6.63;;
47289;SDS011;33197;52.524;13.444;2022-08-18T15:42:26;14.07;;;6.85;;
47289;SDS011;33197;52.524;13.444;2022-08-18T15:44:53;10.35;;;6.22;;
47289;SDS011;33197;52.524;13.444;2022-08-18T15:47:22;11.05;;;6.13;;
47289;SDS011;33197;52.524;13.444;2022-08-18T15:49:51;9.32;;;5.53;;
47289;SDS011;33197;52.524;13.444;2022-08-18T15:52:21;8.88;;;5.95;;
47289;SDS011;33197;52.524;13.444;2022-08-18T15:54:52;8.55;;;5.82;;
47289;SDS011;33197;52.524;13.444;2022-08-18T15:57:28;8.85;;;5.82;;
47289;SDS011;33197;52.524;13.444;2022-08-18T16:00:16;9.70;;;6.10;;
47289;SDS011;33197;52.524;13.444;2022-08-18T16:02:54;8.52;;;5.93;;
47289;SDS011;33197;52.524;13.444;2022-08-18T16:05:24;9.82;;;5.95;;
47289;SDS011;33197;52.524;13.444;2022-08-18T16:07:56;8.98;;;6.18;;
47289;SDS011;33197;52.524;13.444;2022-08-18T16:10:25;8.05;;;5.05;;
47289;SDS011;33197;52.524;13.444;2022-08-18T16:12:53;8.38;;;5.82;;
47289;SDS011;33197;52.524;13.444;2022-08-18T16:15:21;9.60;;;5.57;;
47289;SDS011;33197;52.524;13.444;2022-08-18T16:17:52;6.25;;;5.00;;
47289;SDS011;33197;52.524;13.444;2022-08-18T16:20:20;11.20;;;5.93;;
47289;SDS011;33197;52.524;13.444;2022-08-18T16:22:51;9.13;;;7.05;;
47289;SDS011;33197;52.524;13.444;2022-08-18T16:25:19;14.48;;;7.10;;
47289;SDS011;33197;52.524;13.444;2022-08-18T16:27:46;8.63;;;6.38;;
47289;SDS011;33197;52.524;13.444;2022-08-18T16:30:16;6.47;;;5.80;;
47289;SDS011;33197;52.524;13.444;2022-08-18T16:32:45;8.55;;;5.45;;
47289;SDS011;33197;52.524;13.444;2022-08-18T16:35:13;8.55;;;6.18;;
47289;SDS011;33197;52.524;13.444;2022-08-18T16:37:40;11.60;;;6.20;;
47289;SDS011;33197;52.524;13.444;2022-08-18T16:40:07;9.93;;;6.38;;
47289;SDS011;33197;52.524;13.444;2022-08-18T16:42:35;9.20;;;6.22;;
47289;SDS011;33197;52.524;13.444;2022-08-18T16:45:02;9.00;;;5.97;;
47289;SDS011;33197;52.524;13.444;2022-08-18T16:47:31;9.07;;;7.22;;
47289;SDS011;33197;52.524;13.444;2022-08-18T16:50:00;13.35;;;7.32;;
47289;SDS011;33197;52.524;13.444;2022-08-18T16:52:27;16.85;;;7.55;;
47289;SDS011;33197;52.524;13.444;2022-08-18T16:54:54;17.10;;;8.90;;
47289;SDS011;33197;52.524;13.444;2022-08-18T16:57:23;18.15;;;8.98;;
47289;SDS011;33197;52.524;13.444;2022-08-18T17:00:22;23.48;;;9.32;;
47289;SDS011;33197;52.524;13.444;2022-08-18T17:03:09;13.77;;;9.30;;
47289;SDS011;33197;52.524;13.444;2022-08-18T17:05:59;11.32;;;8.40;;
47289;SDS011;33197;52.524;13.444;2022-08-18T17:08:26;16.63;;;8.90;;
47289;SDS011;33197;52.524;13.444;2022-08-18T17:10:53;20.70;;;10.10;;
47289;SDS011;33197;52.524;13.444;2022-08-18T17:13:20;14.93;;;9.52;;
47289;SDS011;33197;52.524;13.444;2022-08-18T17:15:48;13.77;;;10.20;;
47289;SDS011;33197;52.524;13.444;2022-08-18T17:18:16;17.55;;;9.02;;
47289;SDS011;33197;52.524;13.444;2022-08-18T17:20:43;17.30;;;8.68;;